sensor_id;sensor_type;location;lat;lon;timestamp;temperature;humidity
56322;DHT22;42227;6.376;-10.782;2023-02-03T00:01:36;27.60;99.90
56322;DHT22;42227;6.376;-10.782;2023-02-03T00:04:04;27.50;99.90
56322;DHT22;42227;6.376;-10.782;2023-02-03T00:06:33;27.50;99.90
56322;DHT22;42227;6.376;-10.782;2023-02-03T00:09:03;27.40;99.90
56322;DHT22;42227;6.376;-10.782;2023-02-03T00:11:32;27.30;99.90
56322;DHT22;42227;6.376;-10.782;2023-02-03T00:14:00;27.30;99.90
56322;DHT22;42227;6.376;-10.782;2023-02-03T00:16:28;27.40;99.90
56322;DHT22;42227;6.376;-10.782;2023-02-03T00:18:57;27.50;99.90
56322;DHT22;42227;6.376;-10.782;2023-02-03T00:21:25;27.50;99.90
56322;DHT22;42227;6.376;-10.782;2023-02-03T00:23:53;27.60;99.90
56322;DHT22;42227;6.376;-10.782;2023-02-03T00:26:22;27.60;99.90
56322;DHT22;42227;6.376;-10.782;2023-02-03T00:28:51;27.60;99.90
56322;DHT22;42227;6.376;-10.782;2023-02-03T00:31:22;27.70;99.90
56322;DHT22;42227;6.376;-10.782;2023-02-03T00:33:55;27.50;99.90
56322;DHT22;42227;6.376;-10.782;2023-02-03T00:36:25;27.50;99.90
56322;DHT22;42227;6.376;-10.782;2023-02-03T00:38:54;27.60;99.90
56322;DHT22;42227;6.376;-10.782;2023-02-03T00:41:22;27.60;99.90
56322;DHT22;42227;6.376;-10.782;2023-02-03T00:43:55;27.60;99.90
56322;DHT22;42227;6.376;-10.782;2023-02-03T00:46:23;27.50;99.90
56322;DHT22;42227;6.376;-10.782;2023-02-03T00:48:52;27.60;99.90
56322;DHT22;42227;6.376;-10.782;2023-02-03T00:51:20;27.60;99.90
56322;DHT22;42227;6.376;-10.782;2023-02-03T00:53:49;27.60;99.90
56322;DHT22;42227;6.376;-10.782;2023-02-03T00:56:17;27.50;99.90
56322;DHT22;42227;6.376;-10.782;2023-02-03T00:58:45;27.50;99.90
56322;DHT22;42227;6.376;-10.782;2023-02-03T01:01:14;27.50;99.90
56322;DHT22;42227;6.376;-10.782;2023-02-03T01:03:42;27.50;99.90
56322;DHT22;42227;6.376;-10.782;2023-02-03T01:06:19;27.40;99.90
56322;DHT22;42227;6.376;-10.782;2023-02-03T01:08:48;27.40;99.90
56322;DHT22;42227;6.376;-10.782;2023-02-03T01:11:19;27.30;99.90
56322;DHT22;42227;6.376;-10.782;2023-02-03T01:13:49;27.20;99.90
56322;DHT22;42227;6.376;-10.782;2023-02-03T01:16:19;27.10;99.90
56322;DHT22;42227;6.376;-10.782;2023-02-03T01:18:48;27.10;99.90
56322;DHT22;42227;6.376;-10.782;2023-02-03T01:21:25;27.10;99.90
56322;DHT22;42227;6.376;-10.782;2023-02-03T01:23:55;27.10;99.90
56322;DHT22;42227;6.376;-10.782;2023-02-03T01:26:24;27.00;99.90
56322;DHT22;42227;6.376;-10.782;2023-02-03T01:28:57;27.00;99.90
56322;DHT22;42227;6.376;-10.782;2023-02-03T01:31:37;27.00;99.90
56322;DHT22;42227;6.376;-10.782;2023-02-03T01:34:10;27.20;99.90
56322;DHT22;42227;6.376;-10.782;2023-02-03T01:36:38;27.20;99.90
56322;DHT22;42227;6.376;-10.782;2023-02-03T01:39:07;27.20;99.90
56322;DHT22;42227;6.376;-10.782;2023-02-03T01:41:37;27.10;99.90
56322;DHT22;42227;6.376;-10.782;2023-02-03T01:44:34;26.90;99.90
56322;DHT22;42227;6.376;-10.782;2023-02-03T01:47:20;26.90;99.90
56322;DHT22;42227;6.376;-10.782;2023-02-03T01:50:45;26.90;99.90
56322;DHT22;42227;6.376;-10.782;2023-02-03T01:53:02;27.10;99.90
56322;DHT22;42227;6.376;-10.782;2023-02-03T01:55:39;27.20;99.90
56322;DHT22;42227;6.376;-10.782;2023-02-03T01:58:14;27.30;99.90
56322;DHT22;42227;6.376;-10.782;2023-02-03T02:00:44;27.30;99.90
56322;DHT22;42227;6.376;-10.782;2023-02-03T02:03:13;27.20;99.90
56322;DHT22;42227;6.376;-10.782;2023-02-03T02:05:52;27.30;99.90
56322;DHT22;42227;6.376;-10.782;2023-02-03T02:08:22;27.20;99.90
56322;DHT22;42227;6.376;-10.782;2023-02-03T02:10:51;27.20;99.90
56322;DHT22;42227;6.376;-10.782;2023-02-03T02:13:21;27.20;99.90
56322;DHT22;42227;6.376;-10.782;2023-02-03T02:24:34;27.10;99.90
56322;DHT22;42227;6.376;-10.782;2023-02-03T02:27:40;27.20;99.90
56322;DHT22;42227;6.376;-10.782;2023-02-03T02:30:59;27.10;99.90
56322;DHT22;42227;6.376;-10.782;2023-02-03T02:41:30;26.20;99.90
56322;DHT22;42227;6.376;-10.782;2023-02-03T02:46:52;26.20;99.90
56322;DHT22;42227;6.376;-10.782;2023-02-03T02:52:00;26.10;99.90
56322;DHT22;42227;6.376;-10.782;2023-02-03T02:54:31;26.10;99.90
56322;DHT22;42227;6.376;-10.782;2023-02-03T02:57:02;26.40;99.90
56322;DHT22;42227;6.376;-10.782;2023-02-03T02:59:32;26.40;99.90
56322;DHT22;42227;6.376;-10.782;2023-02-03T03:02:00;26.40;99.90
56322;DHT22;42227;6.376;-10.782;2023-02-03T03:04:30;26.50;99.90
56322;DHT22;42227;6.376;-10.782;2023-02-03T03:07:01;26.40;99.90
56322;DHT22;42227;6.376;-10.782;2023-02-03T03:12:19;26.50;99.90
56322;DHT22;42227;6.376;-10.782;2023-02-03T03:15:15;26.50;99.90
56322;DHT22;42227;6.376;-10.782;2023-02-03T03:17:57;26.50;99.90
56322;DHT22;42227;6.376;-10.782;2023-02-03T03:20:26;26.50;99.90
56322;DHT22;42227;6.376;-10.782;2023-02-03T03:23:26;26.60;99.90
56322;DHT22;42227;6.376;-10.782;2023-02-03T03:26:11;26.70;99.90
56322;DHT22;42227;6.376;-10.782;2023-02-03T03:28:56;26.70;99.90
56322;DHT22;42227;6.376;-10.782;2023-02-03T03:31:25;26.70;99.90
56322;DHT22;42227;6.376;-10.782;2023-02-03T03:33:53;26.70;99.90
56322;DHT22;42227;6.376;-10.782;2023-02-03T03:44:18;26.50;99.90
56322;DHT22;42227;6.376;-10.782;2023-02-03T03:46:58;26.30;99.90
56322;DHT22;42227;6.376;-10.782;2023-02-03T03:49:31;26.20;99.90
56322;DHT22;42227;6.376;-10.782;2023-02-03T03:52:04;26.10;99.90
56322;DHT22;42227;6.376;-10.782;2023-02-03T03:54:36;26.10;99.90
56322;DHT22;42227;6.376;-10.782;2023-02-03T03:57:12;26.10;99.90
56322;DHT22;42227;6.376;-10.782;2023-02-03T03:59:45;26.10;99.90
56322;DHT22;42227;6.376;-10.782;2023-02-03T04:02:15;26.00;99.90
56322;DHT22;42227;6.376;-10.782;2023-02-03T04:05:02;25.90;99.90
56322;DHT22;42227;6.376;-10.782;2023-02-03T04:07:43;26.10;99.90
56322;DHT22;42227;6.376;-10.782;2023-02-03T04:10:31;26.40;99.90
56322;DHT22;42227;6.376;-10.782;2023-02-03T04:13:00;26.30;99.90
56322;DHT22;42227;6.376;-10.782;2023-02-03T04:15:29;26.20;99.90
56322;DHT22;42227;6.376;-10.782;2023-02-03T04:17:57;26.10;99.90
56322;DHT22;42227;6.376;-10.782;2023-02-03T04:20:27;26.00;99.90
56322;DHT22;42227;6.376;-10.782;2023-02-03T04:22:56;25.90;99.90
56322;DHT22;42227;6.376;-10.782;2023-02-03T04:25:25;26.10;99.90
56322;DHT22;42227;6.376;-10.782;2023-02-03T04:27:54;26.10;99.90
56322;DHT22;42227;6.376;-10.782;2023-02-03T04:30:23;26.10;99.90
56322;DHT22;42227;6.376;-10.782;2023-02-03T04:32:52;26.30;99.90
56322;DHT22;42227;6.376;-10.782;2023-02-03T04:35:20;26.30;99.90
56322;DHT22;42227;6.376;-10.782;2023-02-03T04:37:49;26.40;99.90
56322;DHT22;42227;6.376;-10.782;2023-02-03T04:40:17;26.50;99.90
56322;DHT22;42227;6.376;-10.782;2023-02-03T04:42:46;26.40;99.90
56322;DHT22;42227;6.376;-10.782;2023-02-03T04:45:14;26.50;99.90
56322;DHT22;42227;6.376;-10.782;2023-02-03T04:47:42;26.40;99.90
56322;DHT22;42227;6.376;-10.782;2023-02-03T04:50:11;26.50;99.90
56322;DHT22;42227;6.376;-10.782;2023-02-03T04:52:39;26.50;99.90
56322;DHT22;42227;6.376;-10.782;2023-02-03T04:55:08;26.40;99.90
56322;DHT22;42227;6.376;-10.782;2023-02-03T04:57:36;26.30;99.90
56322;DHT22;42227;6.376;-10.782;2023-02-03T05:00:05;26.40;99.90
56322;DHT22;42227;6.376;-10.782;2023-02-03T05:02:33;26.50;99.90
56322;DHT22;42227;6.376;-10.782;2023-02-03T05:05:02;26.50;99.90
56322;DHT22;42227;6.376;-10.782;2023-02-03T05:07:30;26.50;99.90
56322;DHT22;42227;6.376;-10.782;2023-02-03T05:09:58;26.20;99.90
56322;DHT22;42227;6.376;-10.782;2023-02-03T05:12:27;26.00;99.90
56322;DHT22;42227;6.376;-10.782;2023-02-03T05:14:55;25.90;99.90
56322;DHT22;42227;6.376;-10.782;2023-02-03T05:17:23;25.80;99.90
56322;DHT22;42227;6.376;-10.782;2023-02-03T05:19:52;25.80;99.90
56322;DHT22;42227;6.376;-10.782;2023-02-03T05:22:20;25.60;99.90
56322;DHT22;42227;6.376;-10.782;2023-02-03T05:24:49;25.70;99.90
56322;DHT22;42227;6.376;-10.782;2023-02-03T05:27:17;25.70;99.90
56322;DHT22;42227;6.376;-10.782;2023-02-03T05:29:45;25.70;99.90
56322;DHT22;42227;6.376;-10.782;2023-02-03T05:32:14;25.70;99.90
56322;DHT22;42227;6.376;-10.782;2023-02-03T05:34:42;25.80;99.90
56322;DHT22;42227;6.376;-10.782;2023-02-03T05:37:11;26.00;99.90
56322;DHT22;42227;6.376;-10.782;2023-02-03T05:39:39;26.10;99.90
56322;DHT22;42227;6.376;-10.782;2023-02-03T05:42:07;26.30;99.90
56322;DHT22;42227;6.376;-10.782;2023-02-03T05:44:36;26.40;99.90
56322;DHT22;42227;6.376;-10.782;2023-02-03T05:47:04;26.40;99.90
56322;DHT22;42227;6.376;-10.782;2023-02-03T05:49:32;26.50;99.90
56322;DHT22;42227;6.376;-10.782;2023-02-03T05:52:00;26.40;99.90
56322;DHT22;42227;6.376;-10.782;2023-02-03T05:54:29;26.30;99.90
56322;DHT22;42227;6.376;-10.782;2023-02-03T05:56:57;26.40;99.90
56322;DHT22;42227;6.376;-10.782;2023-02-03T05:59:25;26.30;99.90
56322;DHT22;42227;6.376;-10.782;2023-02-03T06:01:54;26.20;99.90
56322;DHT22;42227;6.376;-10.782;2023-02-03T06:04:22;26.30;99.90
56322;DHT22;42227;6.376;-10.782;2023-02-03T06:06:50;26.10;99.90
56322;DHT22;42227;6.376;-10.782;2023-02-03T06:09:19;26.10;99.90
56322;DHT22;42227;6.376;-10.782;2023-02-03T06:11:47;26.10;99.90
56322;DHT22;42227;6.376;-10.782;2023-02-03T06:14:15;26.10;99.90
56322;DHT22;42227;6.376;-10.782;2023-02-03T06:16:44;26.10;99.90
56322;DHT22;42227;6.376;-10.782;2023-02-03T06:19:12;26.00;99.90
56322;DHT22;42227;6.376;-10.782;2023-02-03T06:21:42;25.90;99.90
56322;DHT22;42227;6.376;-10.782;2023-02-03T06:24:11;25.90;99.90
56322;DHT22;42227;6.376;-10.782;2023-02-03T06:26:39;25.90;99.90
56322;DHT22;42227;6.376;-10.782;2023-02-03T06:29:07;25.80;99.90
56322;DHT22;42227;6.376;-10.782;2023-02-03T06:31:36;25.80;99.90
56322;DHT22;42227;6.376;-10.782;2023-02-03T06:34:04;26.00;99.90
56322;DHT22;42227;6.376;-10.782;2023-02-03T06:36:32;26.20;99.90
56322;DHT22;42227;6.376;-10.782;2023-02-03T06:39:00;26.30;99.90
56322;DHT22;42227;6.376;-10.782;2023-02-03T06:41:29;26.40;99.90
56322;DHT22;42227;6.376;-10.782;2023-02-03T06:43:57;26.40;99.90
56322;DHT22;42227;6.376;-10.782;2023-02-03T06:46:25;26.50;99.90
56322;DHT22;42227;6.376;-10.782;2023-02-03T06:48:53;26.30;99.90
56322;DHT22;42227;6.376;-10.782;2023-02-03T06:51:22;26.30;99.90
56322;DHT22;42227;6.376;-10.782;2023-02-03T06:53:50;26.50;99.90
56322;DHT22;42227;6.376;-10.782;2023-02-03T06:56:18;26.40;99.90
56322;DHT22;42227;6.376;-10.782;2023-02-03T06:58:47;26.10;99.90
56322;DHT22;42227;6.376;-10.782;2023-02-03T07:01:15;25.90;99.90
56322;DHT22;42227;6.376;-10.782;2023-02-03T07:03:44;25.80;99.90
56322;DHT22;42227;6.376;-10.782;2023-02-03T07:06:13;25.90;99.90
56322;DHT22;42227;6.376;-10.782;2023-02-03T07:08:42;25.90;99.90
56322;DHT22;42227;6.376;-10.782;2023-02-03T07:11:10;25.90;99.90
56322;DHT22;42227;6.376;-10.782;2023-02-03T07:13:38;25.90;99.90
56322;DHT22;42227;6.376;-10.782;2023-02-03T07:16:06;25.90;99.90
56322;DHT22;42227;6.376;-10.782;2023-02-03T07:18:35;25.90;99.90
56322;DHT22;42227;6.376;-10.782;2023-02-03T07:21:14;25.80;99.90
56322;DHT22;42227;6.376;-10.782;2023-02-03T07:23:45;26.00;99.90
56322;DHT22;42227;6.376;-10.782;2023-02-03T07:26:14;26.20;99.90
56322;DHT22;42227;6.376;-10.782;2023-02-03T07:28:42;26.30;99.90
56322;DHT22;42227;6.376;-10.782;2023-02-03T07:31:11;26.40;99.90
56322;DHT22;42227;6.376;-10.782;2023-02-03T07:33:39;26.50;99.90
56322;DHT22;42227;6.376;-10.782;2023-02-03T07:36:08;26.50;99.90
56322;DHT22;42227;6.376;-10.782;2023-02-03T07:38:37;26.60;99.90
56322;DHT22;42227;6.376;-10.782;2023-02-03T07:41:06;26.70;99.90
56322;DHT22;42227;6.376;-10.782;2023-02-03T07:43:35;26.60;99.90
56322;DHT22;42227;6.376;-10.782;2023-02-03T07:46:04;26.50;99.90
56322;DHT22;42227;6.376;-10.782;2023-02-03T07:48:32;26.50;99.90
56322;DHT22;42227;6.376;-10.782;2023-02-03T07:51:00;26.60;99.90
56322;DHT22;42227;6.376;-10.782;2023-02-03T07:53:29;26.70;99.90
56322;DHT22;42227;6.376;-10.782;2023-02-03T07:56:02;26.80;99.90
56322;DHT22;42227;6.376;-10.782;2023-02-03T07:58:31;27.00;99.90
56322;DHT22;42227;6.376;-10.782;2023-02-03T08:01:00;27.00;99.90
56322;DHT22;42227;6.376;-10.782;2023-02-03T08:03:28;27.10;99.90
56322;DHT22;42227;6.376;-10.782;2023-02-03T08:05:57;26.80;99.90
56322;DHT22;42227;6.376;-10.782;2023-02-03T08:08:26;26.60;99.90
56322;DHT22;42227;6.376;-10.782;2023-02-03T08:10:57;26.50;99.90
56322;DHT22;42227;6.376;-10.782;2023-02-03T08:13:26;26.60;99.90
56322;DHT22;42227;6.376;-10.782;2023-02-03T08:15:54;26.60;99.90
56322;DHT22;42227;6.376;-10.782;2023-02-03T08:18:23;27.10;99.90
56322;DHT22;42227;6.376;-10.782;2023-02-03T08:20:52;27.50;99.90
56322;DHT22;42227;6.376;-10.782;2023-02-03T08:23:20;27.80;99.90
56322;DHT22;42227;6.376;-10.782;2023-02-03T08:25:51;28.00;99.90
56322;DHT22;42227;6.376;-10.782;2023-02-03T08:28:19;27.90;99.90
56322;DHT22;42227;6.376;-10.782;2023-02-03T08:30:48;28.00;99.90
56322;DHT22;42227;6.376;-10.782;2023-02-03T08:33:16;28.40;99.90
56322;DHT22;42227;6.376;-10.782;2023-02-03T08:35:46;29.90;99.90
56322;DHT22;42227;6.376;-10.782;2023-02-03T08:38:16;30.90;99.90
56322;DHT22;42227;6.376;-10.782;2023-02-03T08:40:44;31.80;99.90
56322;DHT22;42227;6.376;-10.782;2023-02-03T08:43:13;30.40;99.90
56322;DHT22;42227;6.376;-10.782;2023-02-03T08:45:41;29.90;99.90
56322;DHT22;42227;6.376;-10.782;2023-02-03T08:48:09;30.70;99.90
56322;DHT22;42227;6.376;-10.782;2023-02-03T08:50:41;33.10;99.90
56322;DHT22;42227;6.376;-10.782;2023-02-03T08:53:10;32.30;99.90
56322;DHT22;42227;6.376;-10.782;2023-02-03T08:55:39;32.10;99.90
56322;DHT22;42227;6.376;-10.782;2023-02-03T08:58:07;33.30;99.90
56322;DHT22;42227;6.376;-10.782;2023-02-03T09:00:35;34.00;99.90
56322;DHT22;42227;6.376;-10.782;2023-02-03T09:03:04;35.10;99.90
56322;DHT22;42227;6.376;-10.782;2023-02-03T09:05:33;35.70;99.90
56322;DHT22;42227;6.376;-10.782;2023-02-03T09:08:02;36.70;99.90
56322;DHT22;42227;6.376;-10.782;2023-02-03T09:10:30;36.60;99.90
56322;DHT22;42227;6.376;-10.782;2023-02-03T09:12:58;36.90;99.90
56322;DHT22;42227;6.376;-10.782;2023-02-03T09:15:27;35.70;99.90
56322;DHT22;42227;6.376;-10.782;2023-02-03T09:17:55;35.90;99.90
56322;DHT22;42227;6.376;-10.782;2023-02-03T09:20:23;36.20;99.90
56322;DHT22;42227;6.376;-10.782;2023-02-03T09:22:52;36.00;99.90
56322;DHT22;42227;6.376;-10.782;2023-02-03T09:25:20;34.60;99.90
56322;DHT22;42227;6.376;-10.782;2023-02-03T09:27:49;34.10;99.90
56322;DHT22;42227;6.376;-10.782;2023-02-03T09:30:17;33.80;99.90
56322;DHT22;42227;6.376;-10.782;2023-02-03T09:32:45;33.70;99.90
56322;DHT22;42227;6.376;-10.782;2023-02-03T09:35:14;33.90;99.90
56322;DHT22;42227;6.376;-10.782;2023-02-03T09:37:42;33.60;99.90
56322;DHT22;42227;6.376;-10.782;2023-02-03T09:40:32;33.20;99.90
56322;DHT22;42227;6.376;-10.782;2023-02-03T09:45:32;33.50;99.90
56322;DHT22;42227;6.376;-10.782;2023-02-03T09:48:14;33.20;99.90
56322;DHT22;42227;6.376;-10.782;2023-02-03T09:50:43;33.10;99.90
56322;DHT22;42227;6.376;-10.782;2023-02-03T09:53:38;33.00;99.90
56322;DHT22;42227;6.376;-10.782;2023-02-03T09:56:28;32.20;99.90
56322;DHT22;42227;6.376;-10.782;2023-02-03T09:58:57;32.00;99.90
56322;DHT22;42227;6.376;-10.782;2023-02-03T10:01:32;32.10;99.90
56322;DHT22;42227;6.376;-10.782;2023-02-03T10:04:32;32.00;99.90
56322;DHT22;42227;6.376;-10.782;2023-02-03T10:07:13;31.50;99.90
56322;DHT22;42227;6.376;-10.782;2023-02-03T10:12:44;31.90;99.90
56322;DHT22;42227;6.376;-10.782;2023-02-03T10:15:37;32.30;99.90
56322;DHT22;42227;6.376;-10.782;2023-02-03T10:18:12;32.10;99.90
56322;DHT22;42227;6.376;-10.782;2023-02-03T10:20:49;32.00;99.90
56322;DHT22;42227;6.376;-10.782;2023-02-03T10:23:35;31.90;99.90
56322;DHT22;42227;6.376;-10.782;2023-02-03T10:26:18;31.90;99.90
56322;DHT22;42227;6.376;-10.782;2023-02-03T10:28:50;31.80;99.90
56322;DHT22;42227;6.376;-10.782;2023-02-03T10:31:26;31.80;99.90
56322;DHT22;42227;6.376;-10.782;2023-02-03T10:34:12;31.80;99.90
56322;DHT22;42227;6.376;-10.782;2023-02-03T10:36:55;32.30;99.90
56322;DHT22;42227;6.376;-10.782;2023-02-03T10:39:42;32.60;99.90
56322;DHT22;42227;6.376;-10.782;2023-02-03T10:42:13;32.50;99.90
56322;DHT22;42227;6.376;-10.782;2023-02-03T10:49:56;33.00;99.90
56322;DHT22;42227;6.376;-10.782;2023-02-03T10:52:33;33.00;99.90
56322;DHT22;42227;6.376;-10.782;2023-02-03T10:55:29;32.80;99.90
56322;DHT22;42227;6.376;-10.782;2023-02-03T10:58:05;32.80;99.90
56322;DHT22;42227;6.376;-10.782;2023-02-03T11:00:36;32.90;99.90
56322;DHT22;42227;6.376;-10.782;2023-02-03T11:03:27;33.00;99.90
56322;DHT22;42227;6.376;-10.782;2023-02-03T11:06:08;32.30;99.90
56322;DHT22;42227;6.376;-10.782;2023-02-03T11:08:48;31.80;99.90
56322;DHT22;42227;6.376;-10.782;2023-02-03T11:11:28;31.60;99.90
56322;DHT22;42227;6.376;-10.782;2023-02-03T11:16:34;31.60;99.90
56322;DHT22;42227;6.376;-10.782;2023-02-03T11:19:26;31.50;99.90
56322;DHT22;42227;6.376;-10.782;2023-02-03T11:21:54;31.50;99.90
56322;DHT22;42227;6.376;-10.782;2023-02-03T11:24:23;31.50;99.90
56322;DHT22;42227;6.376;-10.782;2023-02-03T11:27:03;31.20;99.90
56322;DHT22;42227;6.376;-10.782;2023-02-03T11:29:47;31.30;99.90
56322;DHT22;42227;6.376;-10.782;2023-02-03T11:32:20;31.70;99.90
56322;DHT22;42227;6.376;-10.782;2023-02-03T11:34:57;31.80;99.90
56322;DHT22;42227;6.376;-10.782;2023-02-03T11:37:34;31.70;99.90
56322;DHT22;42227;6.376;-10.782;2023-02-03T11:42:39;31.80;99.90
56322;DHT22;42227;6.376;-10.782;2023-02-03T11:45:14;32.00;99.90
56322;DHT22;42227;6.376;-10.782;2023-02-03T11:47:59;32.20;99.90
56322;DHT22;42227;6.376;-10.782;2023-02-03T12:07:27;32.60;99.90
56322;DHT22;42227;6.376;-10.782;2023-02-03T12:10:05;33.00;99.90
56322;DHT22;42227;6.376;-10.782;2023-02-03T12:26:32;33.00;99.90
56322;DHT22;42227;6.376;-10.782;2023-02-03T12:29:03;33.20;99.90
56322;DHT22;42227;6.376;-10.782;2023-02-03T12:31:48;33.20;99.90
56322;DHT22;42227;6.376;-10.782;2023-02-03T12:34:25;33.30;99.90
56322;DHT22;42227;6.376;-10.782;2023-02-03T12:37:12;33.20;99.90
56322;DHT22;42227;6.376;-10.782;2023-02-03T12:42:31;33.50;99.90
56322;DHT22;42227;6.376;-10.782;2023-02-03T12:45:33;33.50;99.90
56322;DHT22;42227;6.376;-10.782;2023-02-03T12:48:12;33.60;99.90
56322;DHT22;42227;6.376;-10.782;2023-02-03T12:50:50;33.60;99.90
56322;DHT22;42227;6.376;-10.782;2023-02-03T12:53:27;33.70;99.90
56322;DHT22;42227;6.376;-10.782;2023-02-03T12:56:13;33.80;99.90
56322;DHT22;42227;6.376;-10.782;2023-02-03T13:01:27;33.40;99.90
56322;DHT22;42227;6.376;-10.782;2023-02-03T13:04:17;33.60;99.90
56322;DHT22;42227;6.376;-10.782;2023-02-03T13:07:06;33.50;99.90
56322;DHT22;42227;6.376;-10.782;2023-02-03T13:12:12;33.40;99.90
56322;DHT22;42227;6.376;-10.782;2023-02-03T13:14:51;33.60;99.90
56322;DHT22;42227;6.376;-10.782;2023-02-03T13:19:57;33.70;99.90
56322;DHT22;42227;6.376;-10.782;2023-02-03T13:22:27;33.70;99.90
56322;DHT22;42227;6.376;-10.782;2023-02-03T13:25:20;33.50;99.90
56322;DHT22;42227;6.376;-10.782;2023-02-03T13:30:48;33.20;99.90
56322;DHT22;42227;6.376;-10.782;2023-02-03T13:39:15;33.00;99.90
56322;DHT22;42227;6.376;-10.782;2023-02-03T13:41:50;33.00;99.90
56322;DHT22;42227;6.376;-10.782;2023-02-03T13:44:27;33.00;99.90
56322;DHT22;42227;6.376;-10.782;2023-02-03T13:46:58;33.10;99.90
56322;DHT22;42227;6.376;-10.782;2023-02-03T13:49:30;33.10;99.90
56322;DHT22;42227;6.376;-10.782;2023-02-03T13:52:00;33.00;99.90
56322;DHT22;42227;6.376;-10.782;2023-02-03T13:54:37;32.60;99.90
56322;DHT22;42227;6.376;-10.782;2023-02-03T13:57:21;32.40;99.90
56322;DHT22;42227;6.376;-10.782;2023-02-03T13:59:51;32.70;99.90
56322;DHT22;42227;6.376;-10.782;2023-02-03T14:04:55;32.80;99.90
56322;DHT22;42227;6.376;-10.782;2023-02-03T14:07:37;32.60;99.90
56322;DHT22;42227;6.376;-10.782;2023-02-03T14:15:22;32.70;99.90
56322;DHT22;42227;6.376;-10.782;2023-02-03T14:18:03;32.60;99.90
56322;DHT22;42227;6.376;-10.782;2023-02-03T14:20:37;32.70;99.90
56322;DHT22;42227;6.376;-10.782;2023-02-03T14:25:47;32.40;99.90
56322;DHT22;42227;6.376;-10.782;2023-02-03T14:28:20;32.40;99.90
56322;DHT22;42227;6.376;-10.782;2023-02-03T14:31:11;32.60;99.90
56322;DHT22;42227;6.376;-10.782;2023-02-03T14:33:59;32.40;99.90
56322;DHT22;42227;6.376;-10.782;2023-02-03T14:36:43;32.60;99.90
56322;DHT22;42227;6.376;-10.782;2023-02-03T14:42:00;32.50;99.90
56322;DHT22;42227;6.376;-10.782;2023-02-03T14:47:24;32.50;99.90
56322;DHT22;42227;6.376;-10.782;2023-02-03T14:50:15;32.20;99.90
56322;DHT22;42227;6.376;-10.782;2023-02-03T15:01:03;32.30;99.90
56322;DHT22;42227;6.376;-10.782;2023-02-03T15:03:32;32.40;99.90
56322;DHT22;42227;6.376;-10.782;2023-02-03T15:06:02;32.40;99.90
56322;DHT22;42227;6.376;-10.782;2023-02-03T15:13:48;32.60;99.90
56322;DHT22;42227;6.376;-10.782;2023-02-03T15:16:21;32.50;99.90
56322;DHT22;42227;6.376;-10.782;2023-02-03T15:18:55;32.30;99.90
56322;DHT22;42227;6.376;-10.782;2023-02-03T15:21:26;32.40;99.90
56322;DHT22;42227;6.376;-10.782;2023-02-03T15:23:55;32.40;99.90
56322;DHT22;42227;6.376;-10.782;2023-02-03T15:26:24;32.10;99.90
56322;DHT22;42227;6.376;-10.782;2023-02-03T15:29:00;31.90;99.90
56322;DHT22;42227;6.376;-10.782;2023-02-03T15:32:05;31.90;99.90
56322;DHT22;42227;6.376;-10.782;2023-02-03T15:34:38;31.80;99.90
56322;DHT22;42227;6.376;-10.782;2023-02-03T15:40:01;32.00;99.90
56322;DHT22;42227;6.376;-10.782;2023-02-03T15:42:57;31.70;99.90
56322;DHT22;42227;6.376;-10.782;2023-02-03T15:45:36;31.90;99.90
56322;DHT22;42227;6.376;-10.782;2023-02-03T15:48:27;32.00;99.90
56322;DHT22;42227;6.376;-10.782;2023-02-03T15:56:24;31.40;99.90
56322;DHT22;42227;6.376;-10.782;2023-02-03T15:58:55;31.30;99.90
56322;DHT22;42227;6.376;-10.782;2023-02-03T16:01:24;31.70;99.90
56322;DHT22;42227;6.376;-10.782;2023-02-03T16:03:55;31.70;99.90
56322;DHT22;42227;6.376;-10.782;2023-02-03T16:06:33;31.60;99.90
56322;DHT22;42227;6.376;-10.782;2023-02-03T16:09:04;31.60;99.90
56322;DHT22;42227;6.376;-10.782;2023-02-03T16:11:37;31.70;99.90
56322;DHT22;42227;6.376;-10.782;2023-02-03T16:14:10;31.40;99.90
56322;DHT22;42227;6.376;-10.782;2023-02-03T16:16:42;31.00;99.90
56322;DHT22;42227;6.376;-10.782;2023-02-03T16:19:31;31.20;99.90
56322;DHT22;42227;6.376;-10.782;2023-02-03T16:22:00;31.10;99.90
56322;DHT22;42227;6.376;-10.782;2023-02-03T16:24:41;31.10;99.90
56322;DHT22;42227;6.376;-10.782;2023-02-03T16:32:42;31.10;99.90
56322;DHT22;42227;6.376;-10.782;2023-02-03T16:35:10;31.30;99.90
56322;DHT22;42227;6.376;-10.782;2023-02-03T16:37:43;31.20;99.90
56322;DHT22;42227;6.376;-10.782;2023-02-03T16:40:14;31.20;99.90
56322;DHT22;42227;6.376;-10.782;2023-02-03T16:42:45;31.20;99.90
56322;DHT22;42227;6.376;-10.782;2023-02-03T16:45:17;31.10;99.90
56322;DHT22;42227;6.376;-10.782;2023-02-03T16:47:46;31.10;99.90
56322;DHT22;42227;6.376;-10.782;2023-02-03T16:50:19;31.20;99.90
56322;DHT22;42227;6.376;-10.782;2023-02-03T16:53:05;31.10;99.90
56322;DHT22;42227;6.376;-10.782;2023-02-03T16:55:34;31.10;99.90
56322;DHT22;42227;6.376;-10.782;2023-02-03T16:58:02;31.00;99.90
56322;DHT22;42227;6.376;-10.782;2023-02-03T17:00:31;30.90;99.90
56322;DHT22;42227;6.376;-10.782;2023-02-03T17:03:02;31.10;99.90
56322;DHT22;42227;6.376;-10.782;2023-02-03T17:05:35;30.90;99.90
56322;DHT22;42227;6.376;-10.782;2023-02-03T17:08:04;30.90;99.90
56322;DHT22;42227;6.376;-10.782;2023-02-03T17:10:34;30.80;99.90
56322;DHT22;42227;6.376;-10.782;2023-02-03T17:13:03;30.90;99.90
56322;DHT22;42227;6.376;-10.782;2023-02-03T17:15:31;31.10;99.90
56322;DHT22;42227;6.376;-10.782;2023-02-03T17:18:00;31.00;99.90
56322;DHT22;42227;6.376;-10.782;2023-02-03T17:20:28;30.90;99.90
56322;DHT22;42227;6.376;-10.782;2023-02-03T17:22:56;30.60;99.90
56322;DHT22;42227;6.376;-10.782;2023-02-03T17:25:25;30.60;99.90
56322;DHT22;42227;6.376;-10.782;2023-02-03T17:27:54;30.40;99.90
56322;DHT22;42227;6.376;-10.782;2023-02-03T17:30:22;30.20;99.90
56322;DHT22;42227;6.376;-10.782;2023-02-03T17:32:50;30.20;99.90
56322;DHT22;42227;6.376;-10.782;2023-02-03T17:35:19;30.30;99.90
56322;DHT22;42227;6.376;-10.782;2023-02-03T17:37:47;30.30;99.90
56322;DHT22;42227;6.376;-10.782;2023-02-03T17:40:15;30.30;99.90
56322;DHT22;42227;6.376;-10.782;2023-02-03T17:43:00;30.20;99.90
56322;DHT22;42227;6.376;-10.782;2023-02-03T17:45:45;30.00;99.90
56322;DHT22;42227;6.376;-10.782;2023-02-03T17:48:31;30.10;99.90
56322;DHT22;42227;6.376;-10.782;2023-02-03T17:51:18;29.90;99.90
56322;DHT22;42227;6.376;-10.782;2023-02-03T17:54:04;30.10;99.90
56322;DHT22;42227;6.376;-10.782;2023-02-03T17:56:33;30.10;99.90
56322;DHT22;42227;6.376;-10.782;2023-02-03T17:59:03;29.90;99.90
56322;DHT22;42227;6.376;-10.782;2023-02-03T18:01:32;30.00;99.90
56322;DHT22;42227;6.376;-10.782;2023-02-03T18:04:03;29.80;99.90
56322;DHT22;42227;6.376;-10.782;2023-02-03T18:06:32;29.80;99.90
56322;DHT22;42227;6.376;-10.782;2023-02-03T18:09:06;30.00;99.90
56322;DHT22;42227;6.376;-10.782;2023-02-03T18:11:37;30.10;99.90
56322;DHT22;42227;6.376;-10.782;2023-02-03T18:14:05;30.00;99.90